createdAt,value
2019-03-19T00:00:51.802Z,0.00
2019-03-19T00:01:51.743Z,0.00
2019-03-19T00:02:51.735Z,0.00
2019-03-19T00:03:51.629Z,0.00
2019-03-19T00:04:51.581Z,0.00
2019-03-19T00:05:51.510Z,0.00
2019-03-19T00:06:51.450Z,0.00
2019-03-19T00:07:51.394Z,0.00
2019-03-19T00:08:51.360Z,0.00
2019-03-19T00:09:51.281Z,0.00
2019-03-19T00:10:51.224Z,0.00
2019-03-19T00:11:51.161Z,0.00
2019-03-19T00:12:51.105Z,0.00
2019-03-19T00:13:51.074Z,0.00
2019-03-19T00:14:50.994Z,0.00
2019-03-19T00:15:50.932Z,0.00
2019-03-19T00:16:50.872Z,0.00
2019-03-19T00:17:50.816Z,0.00
2019-03-19T00:18:50.777Z,0.00
2019-03-19T00:19:50.693Z,0.00
2019-03-19T00:20:50.638Z,0.00
2019-03-19T00:21:50.585Z,0.00
2019-03-19T00:22:50.524Z,0.00
2019-03-19T00:23:50.488Z,0.00
2019-03-19T00:24:50.410Z,0.00
2019-03-19T00:25:50.407Z,0.00
2019-03-19T00:26:50.294Z,0.00
2019-03-19T00:27:50.233Z,0.00
2019-03-19T00:28:50.205Z,0.00
2019-03-19T00:29:50.115Z,0.00
2019-03-19T00:30:50.059Z,0.00
2019-03-19T00:31:50.001Z,0.00
2019-03-19T00:32:49.944Z,0.00
2019-03-19T00:33:49.910Z,0.00
2019-03-19T00:34:49.827Z,0.00
2019-03-19T00:35:49.768Z,0.00
2019-03-19T00:36:49.712Z,0.00
2019-03-19T00:37:49.650Z,0.00
2019-03-19T00:38:49.620Z,0.00
2019-03-19T00:39:49.534Z,0.00
2019-03-19T00:40:49.478Z,0.00
2019-03-19T00:41:49.419Z,0.00
2019-03-19T00:42:49.363Z,0.00
2019-03-19T00:43:49.324Z,0.00
2019-03-19T00:44:49.245Z,0.00
2019-03-19T00:45:49.190Z,0.00
2019-03-19T00:46:49.131Z,0.00
2019-03-19T00:47:49.070Z,0.00
2019-03-19T00:48:49.035Z,0.00
2019-03-19T00:49:48.956Z,0.00
2019-03-19T00:50:48.897Z,0.00
2019-03-19T00:51:48.841Z,0.00
2019-03-19T00:52:48.781Z,0.00
2019-03-19T00:53:48.761Z,0.00
2019-03-19T00:54:48.664Z,0.00
2019-03-19T00:55:48.611Z,0.00
2019-03-19T00:56:48.548Z,0.00
2019-03-19T00:57:48.489Z,0.00
2019-03-19T00:58:48.453Z,0.00
2019-03-19T00:59:48.385Z,0.00
2019-03-19T01:00:48.314Z,0.00
2019-03-19T01:01:48.259Z,0.00
2019-03-19T01:02:48.200Z,0.00
2019-03-19T01:03:48.164Z,0.00
2019-03-19T01:04:48.083Z,0.00
2019-03-19T01:05:48.027Z,0.00
2019-03-19T01:06:47.967Z,0.00
2019-03-19T01:07:47.907Z,0.00
2019-03-19T01:08:47.879Z,0.00
2019-03-19T01:09:47.792Z,0.00
2019-03-19T01:10:47.736Z,0.00
2019-03-19T01:11:47.673Z,0.00
2019-03-19T01:12:47.626Z,0.00
2019-03-19T01:13:47.583Z,0.00
2019-03-19T01:14:47.510Z,0.00
2019-03-19T01:15:47.444Z,0.00
2019-03-19T01:16:47.384Z,0.00
2019-03-19T01:17:47.328Z,0.00
2019-03-19T01:18:47.293Z,0.00
2019-03-19T01:19:47.210Z,0.00
2019-03-19T01:20:47.157Z,0.00
2019-03-19T01:21:47.101Z,0.00
2019-03-19T01:22:47.036Z,0.00
2019-03-19T01:23:47.000Z,0.00
2019-03-19T01:24:46.921Z,0.00
2019-03-19T01:25:55.360Z,0.00
2019-03-19T01:26:46.802Z,0.00
2019-03-19T01:27:46.744Z,0.00
2019-03-19T01:28:46.711Z,0.00
2019-03-19T01:29:46.628Z,0.00
2019-03-19T01:30:46.570Z,0.00
2019-03-19T01:31:46.513Z,0.00
2019-03-19T01:32:46.450Z,0.00
2019-03-19T01:33:46.419Z,0.00
2019-03-19T01:34:46.334Z,0.00
2019-03-19T01:35:46.282Z,0.00
2019-03-19T01:36:46.220Z,0.00
2019-03-19T01:37:46.165Z,0.00
2019-03-19T01:38:46.132Z,0.00
2019-03-19T01:39:46.046Z,0.00
2019-03-19T01:40:45.989Z,0.00
2019-03-19T01:41:45.931Z,0.00
2019-03-19T01:42:45.876Z,0.00
2019-03-19T01:43:45.816Z,0.00
2019-03-19T01:44:45.781Z,0.00
2019-03-19T01:45:45.694Z,0.00
2019-03-19T01:46:45.639Z,0.00
2019-03-19T01:47:45.577Z,0.00
2019-03-19T01:48:45.523Z,0.00
2019-03-19T01:49:45.490Z,0.00
2019-03-19T01:50:45.404Z,0.00
2019-03-19T01:51:45.349Z,0.00
2019-03-19T01:52:45.292Z,0.00
2019-03-19T01:53:45.230Z,0.00
2019-03-19T01:54:45.194Z,0.00
2019-03-19T01:55:45.117Z,0.00
2019-03-19T01:56:45.057Z,0.00
2019-03-19T01:57:45.001Z,0.00
2019-03-19T01:58:44.938Z,0.00
2019-03-19T01:59:44.908Z,0.00
2019-03-19T02:00:44.823Z,0.00
2019-03-19T02:01:44.770Z,0.00
2019-03-19T02:02:44.710Z,0.00
2019-03-19T02:03:44.648Z,0.00
2019-03-19T02:04:44.613Z,0.00
2019-03-19T02:05:44.533Z,0.00
2019-03-19T02:06:44.473Z,0.00
2019-03-19T02:07:44.422Z,0.00
2019-03-19T02:08:44.359Z,0.00
2019-03-19T02:09:44.320Z,0.00
2019-03-19T02:10:44.240Z,0.00
2019-03-19T02:11:44.183Z,0.00
2019-03-19T02:12:44.129Z,0.00
2019-03-19T02:13:44.079Z,0.00
2019-03-19T02:14:44.032Z,0.00
2019-03-19T02:15:43.951Z,0.00
2019-03-19T02:16:43.892Z,0.00
2019-03-19T02:17:43.837Z,0.00
2019-03-19T02:18:43.770Z,0.00
2019-03-19T02:19:43.746Z,0.00
2019-03-19T02:20:43.663Z,0.00
2019-03-19T02:21:43.600Z,0.00
2019-03-19T02:22:43.534Z,0.00
2019-03-19T02:23:43.490Z,0.00
2019-03-19T02:24:43.450Z,0.00
2019-03-19T02:25:43.366Z,0.00
2019-03-19T02:26:43.306Z,0.00
2019-03-19T02:27:43.251Z,0.00
2019-03-19T02:28:43.192Z,0.00
2019-03-19T02:29:43.161Z,0.00
2019-03-19T02:30:43.079Z,0.00
2019-03-19T02:31:43.019Z,0.00
2019-03-19T02:32:42.972Z,0.00
2019-03-19T02:33:42.899Z,0.00
2019-03-19T02:34:42.864Z,0.00
2019-03-19T02:35:42.794Z,0.00
2019-03-19T02:36:42.737Z,0.00
2019-03-19T02:37:42.665Z,0.00
2019-03-19T02:38:42.615Z,0.00
2019-03-19T02:39:42.570Z,0.00
2019-03-19T02:40:42.493Z,0.00
2019-03-19T02:41:42.437Z,0.00
2019-03-19T02:42:42.380Z,0.00
2019-03-19T02:43:42.318Z,0.00
2019-03-19T02:44:42.285Z,0.00
2019-03-19T02:45:42.207Z,0.00
2019-03-19T02:46:42.138Z,0.00
2019-03-19T02:47:42.089Z,0.00
2019-03-19T02:48:42.023Z,0.00
2019-03-19T02:49:41.993Z,0.00
2019-03-19T02:50:41.911Z,0.00
2019-03-19T02:51:41.849Z,0.00
2019-03-19T02:52:41.791Z,0.00
2019-03-19T02:53:41.739Z,0.00
2019-03-19T02:54:41.703Z,0.00
2019-03-19T02:55:41.616Z,0.00
2019-03-19T02:56:41.557Z,0.00
2019-03-19T02:57:41.514Z,0.00
2019-03-19T02:58:41.440Z,0.00
2019-03-19T02:59:41.406Z,0.00
2019-03-19T03:00:41.328Z,0.00
2019-03-19T03:01:41.270Z,0.00
2019-03-19T03:02:41.300Z,0.00
2019-03-19T03:03:41.148Z,0.00
2019-03-19T03:04:41.114Z,0.00
2019-03-19T03:05:41.035Z,0.00
2019-03-19T03:06:40.974Z,0.00
2019-03-19T03:07:40.916Z,0.00
2019-03-19T03:08:40.857Z,0.00
2019-03-19T03:09:40.821Z,0.00
2019-03-19T03:10:40.738Z,0.00
2019-03-19T03:11:40.682Z,0.00
2019-03-19T03:12:40.619Z,0.00
2019-03-19T03:13:40.562Z,0.00
2019-03-19T03:14:40.533Z,0.00
2019-03-19T03:15:40.448Z,0.00
2019-03-19T03:16:40.395Z,0.00
2019-03-19T03:17:40.335Z,0.00
2019-03-19T03:20:11.956Z,0.00
2019-03-19T03:21:11.875Z,0.00
2019-03-19T03:22:11.835Z,0.00
2019-03-19T03:23:11.768Z,0.00
2019-03-19T03:24:11.699Z,0.00
2019-03-19T03:25:11.672Z,0.00
2019-03-19T03:26:11.596Z,0.00
2019-03-19T03:27:11.581Z,0.00
2019-03-19T03:28:11.471Z,0.00
2019-03-19T03:29:11.456Z,0.00
2019-03-19T03:30:11.375Z,0.00
2019-03-19T03:31:11.294Z,0.00
2019-03-19T03:32:11.266Z,0.00
2019-03-19T03:33:11.171Z,0.00
2019-03-19T03:34:11.113Z,0.00
2019-03-19T03:35:11.109Z,0.00
2019-03-19T03:36:11.001Z,0.00
2019-03-19T03:37:10.947Z,0.00
2019-03-19T03:38:10.909Z,0.00
2019-03-19T03:39:10.841Z,0.00
2019-03-19T03:40:10.788Z,0.00
2019-03-19T03:41:10.723Z,0.00
2019-03-19T03:42:10.653Z,0.00
2019-03-19T03:43:10.600Z,0.00
2019-03-19T03:44:10.545Z,0.00
2019-03-19T03:45:10.498Z,0.00
2019-03-19T03:46:10.420Z,0.00
2019-03-19T03:47:10.355Z,0.00
2019-03-19T03:48:10.310Z,0.00
2019-03-19T03:49:10.238Z,0.00
2019-03-19T03:50:10.205Z,0.00
2019-03-19T03:51:10.125Z,0.00
2019-03-19T03:52:10.059Z,0.00
2019-03-19T03:53:10.001Z,0.00
2019-03-19T03:54:09.975Z,0.00
2019-03-19T03:55:09.905Z,0.00
2019-03-19T03:56:09.825Z,0.00
2019-03-19T03:57:09.793Z,0.00
2019-03-19T03:58:09.718Z,0.00
2019-03-19T03:59:09.645Z,0.00
2019-03-19T04:00:09.621Z,0.00
2019-03-19T04:01:09.562Z,0.00
2019-03-19T04:02:09.487Z,0.00
2019-03-19T04:03:09.414Z,0.00
2019-03-19T04:04:09.370Z,0.00
2019-03-19T04:05:09.483Z,0.00
2019-03-19T04:06:09.260Z,0.00
2019-03-19T04:07:09.182Z,0.00
2019-03-19T04:08:09.129Z,0.00
2019-03-19T04:09:09.532Z,0.00
2019-03-19T04:10:09.009Z,0.00
2019-03-19T04:11:08.978Z,0.00
2019-03-19T04:12:08.890Z,0.00
2019-03-19T04:13:08.857Z,0.00
2019-03-19T04:14:08.765Z,0.00
2019-03-19T04:15:08.720Z,0.00
2019-03-19T04:16:08.709Z,0.00
2019-03-19T04:17:08.592Z,0.00
2019-03-19T04:18:08.541Z,0.00
2019-03-19T04:19:08.483Z,0.00
2019-03-19T04:20:08.431Z,0.00
2019-03-19T04:21:08.396Z,0.00
2019-03-19T04:22:08.304Z,0.00
2019-03-19T04:23:08.242Z,0.00
2019-03-19T04:24:08.198Z,0.00
2019-03-19T04:25:08.126Z,0.00
2019-03-19T04:26:08.101Z,0.00
2019-03-19T04:27:16.070Z,0.00
2019-03-19T04:28:07.953Z,0.00
2019-03-19T04:29:07.898Z,0.00
2019-03-19T04:30:07.854Z,0.00
2019-03-19T04:31:07.812Z,0.00
2019-03-19T04:32:07.725Z,0.00
2019-03-19T04:33:07.668Z,0.00
2019-03-19T04:34:07.614Z,0.00
2019-03-19T04:35:07.546Z,0.00
2019-03-19T04:36:07.509Z,0.00
2019-03-19T04:37:07.424Z,0.00
2019-03-19T04:38:07.371Z,0.00
2019-03-19T04:39:07.311Z,0.00
2019-03-19T04:40:07.251Z,0.00
2019-03-19T04:41:07.221Z,0.00
2019-03-19T04:42:07.178Z,0.00
2019-03-19T04:43:07.073Z,0.00
2019-03-19T04:44:07.023Z,0.00
2019-03-19T04:45:06.954Z,0.00
2019-03-19T04:46:06.960Z,0.00
2019-03-19T04:47:06.839Z,0.00
2019-03-19T04:48:06.790Z,0.00
2019-03-19T04:49:06.735Z,0.00
2019-03-19T04:50:06.698Z,0.00
2019-03-19T04:51:06.632Z,0.00
2019-03-19T04:52:06.577Z,0.00
2019-03-19T04:53:06.486Z,0.00
2019-03-19T04:54:06.429Z,0.00
2019-03-19T04:55:06.374Z,0.00
2019-03-19T04:56:06.371Z,0.00
2019-03-19T04:57:06.254Z,0.00
2019-03-19T04:58:06.190Z,0.00
2019-03-19T04:59:06.145Z,0.00
2019-03-19T05:00:06.083Z,0.00
2019-03-19T05:01:06.053Z,0.00
2019-03-19T05:02:05.957Z,0.00
2019-03-19T05:03:05.916Z,4.00
2019-03-19T05:04:05.835Z,0.00
2019-03-19T05:05:05.783Z,0.00
2019-03-19T05:06:05.775Z,4.00
2019-03-19T05:07:05.672Z,0.00
2019-03-19T05:08:05.610Z,4.00
2019-03-19T05:09:05.557Z,4.00
2019-03-19T05:10:05.495Z,4.00
2019-03-19T05:11:05.482Z,8.00
2019-03-19T05:12:05.367Z,8.00
2019-03-19T05:13:05.340Z,8.00
2019-03-19T05:14:05.259Z,12.00
2019-03-19T05:15:05.198Z,8.00
2019-03-19T05:16:05.185Z,12.00
2019-03-19T05:17:05.083Z,16.00
2019-03-19T05:18:05.028Z,20.00
2019-03-19T05:19:04.973Z,24.00
2019-03-19T05:20:04.907Z,28.00
2019-03-19T05:21:04.877Z,28.00
2019-03-19T05:22:04.799Z,36.00
2019-03-19T05:23:04.732Z,40.00
2019-03-19T05:24:04.675Z,48.00
2019-03-19T05:25:04.643Z,56.00
2019-03-19T05:26:04.576Z,60.00
2019-03-19T05:27:04.498Z,64.00
2019-03-19T05:28:04.435Z,76.00
2019-03-19T05:29:04.373Z,84.00
2019-03-19T05:30:04.318Z,92.00
2019-03-19T05:31:04.282Z,104.00
2019-03-19T05:32:04.200Z,116.00
2019-03-19T05:33:04.168Z,128.00
2019-03-19T05:34:04.103Z,144.00
2019-03-19T05:35:04.027Z,156.00
2019-03-19T05:36:03.988Z,168.00
2019-03-19T05:37:03.934Z,188.00
2019-03-19T05:38:03.843Z,196.00
2019-03-19T05:39:03.790Z,212.00
2019-03-19T05:40:03.766Z,232.00
2019-03-19T05:41:03.737Z,248.00
2019-03-19T05:42:03.762Z,268.00
2019-03-19T05:43:03.555Z,284.00
2019-03-19T05:44:03.548Z,300.00
2019-03-19T05:45:03.447Z,320.00
2019-03-19T05:46:03.388Z,340.00
2019-03-19T05:47:03.359Z,356.00
2019-03-19T05:48:03.264Z,376.00
2019-03-19T05:49:03.203Z,404.00
2019-03-19T05:50:03.145Z,424.00
2019-03-19T05:51:03.083Z,448.00
2019-03-19T05:52:03.058Z,468.00
2019-03-19T05:53:02.973Z,492.00
2019-03-19T05:54:02.926Z,516.00
2019-03-19T05:55:02.845Z,540.00
2019-03-19T05:56:02.798Z,576.00
2019-03-19T05:57:02.773Z,600.00
2019-03-19T05:58:02.676Z,620.00
2019-03-19T05:59:02.625Z,636.00
2019-03-19T06:00:02.562Z,648.00
2019-03-19T06:01:02.506Z,660.00
2019-03-19T06:02:02.468Z,668.00
2019-03-19T06:03:02.395Z,684.00
2019-03-19T06:04:02.328Z,708.00
2019-03-19T06:05:02.260Z,736.00
2019-03-19T06:06:02.231Z,740.00
2019-03-19T06:07:02.177Z,744.00
2019-03-19T06:08:02.083Z,748.00
2019-03-19T06:09:02.031Z,772.00
2019-03-19T06:10:01.973Z,780.00
2019-03-19T06:11:01.920Z,768.00
2019-03-19T06:12:01.919Z,796.00
2019-03-19T06:13:01.795Z,964.00
2019-03-19T06:14:01.740Z,1012.00
2019-03-19T06:15:01.684Z,892.00
2019-03-19T06:16:01.618Z,928.00
2019-03-19T06:17:01.600Z,984.00
2019-03-19T06:18:01.508Z,1024.00
2019-03-19T06:19:01.451Z,1056.00
2019-03-19T06:20:01.399Z,1160.00
2019-03-19T06:21:01.324Z,1124.00
2019-03-19T06:22:01.300Z,1168.00
2019-03-19T06:23:01.218Z,1200.00
2019-03-19T06:24:01.154Z,1312.00
2019-03-19T06:25:01.092Z,1304.00
2019-03-19T06:26:01.030Z,1380.00
2019-03-19T06:27:01.002Z,1408.00
2019-03-19T06:28:01.089Z,1304.00
2019-03-19T06:29:00.869Z,1444.00
2019-03-19T06:30:00.805Z,1420.00
2019-03-19T06:31:00.761Z,1376.00
2019-03-19T06:32:00.718Z,1496.00
2019-03-19T06:33:00.628Z,1608.00
2019-03-19T06:34:00.577Z,1484.00
2019-03-19T06:35:00.509Z,1416.00
2019-03-19T06:36:00.453Z,1376.00
2019-03-19T06:37:00.412Z,1476.00
2019-03-19T06:38:00.331Z,1536.00
2019-03-19T06:39:00.288Z,1460.00
2019-03-19T06:40:00.329Z,1536.00
2019-03-19T06:41:00.166Z,1760.00
2019-03-19T06:42:00.134Z,1680.00
2019-03-19T06:43:00.038Z,1512.00
2019-03-19T06:43:59.985Z,1660.00
2019-03-19T06:44:59.933Z,1964.00
2019-03-19T06:45:59.868Z,1960.00
2019-03-19T06:46:59.840Z,1844.00
2019-03-19T06:47:59.754Z,1912.00
2019-03-19T06:48:59.697Z,2008.00
2019-03-19T06:49:59.641Z,2016.00
2019-03-19T06:50:59.573Z,1972.00
2019-03-19T06:51:59.545Z,2124.00
2019-03-19T06:52:59.458Z,1976.00
2019-03-19T06:53:59.408Z,1928.00
2019-03-19T06:54:59.351Z,1876.00
2019-03-19T06:55:59.291Z,1900.00
2019-03-19T06:56:59.251Z,2080.00
2019-03-19T06:57:59.173Z,2784.00
2019-03-19T06:58:59.115Z,2256.00
2019-03-19T06:59:59.062Z,2108.00
2019-03-19T07:00:59.001Z,1868.00
2019-03-19T07:01:58.975Z,1888.00
2019-03-19T07:02:58.893Z,2464.00
2019-03-19T07:03:58.827Z,2488.00
2019-03-19T07:04:58.770Z,2548.00
2019-03-19T07:05:58.718Z,2344.00
2019-03-19T07:06:58.695Z,2272.00
2019-03-19T07:07:58.611Z,1948.00
2019-03-19T07:08:58.538Z,1972.00
2019-03-19T07:09:58.485Z,2480.00
2019-03-19T07:10:58.535Z,2520.00
2019-03-19T07:11:58.394Z,2432.00
2019-03-19T07:12:58.307Z,2652.00
2019-03-19T07:13:58.270Z,2804.00
2019-03-19T07:14:58.185Z,2956.00
2019-03-19T07:15:58.159Z,2660.00
2019-03-19T07:16:58.097Z,3004.00
2019-03-19T07:17:58.042Z,3044.00
2019-03-19T07:18:57.966Z,2884.00
2019-03-19T07:19:57.907Z,2584.00
2019-03-19T07:20:57.877Z,2680.00
2019-03-19T07:21:57.844Z,3116.00
2019-03-19T07:22:57.745Z,3524.00
2019-03-19T07:23:57.680Z,3312.00
2019-03-19T07:24:57.627Z,3180.00
2019-03-19T07:25:57.605Z,3288.00
2019-03-19T07:26:57.507Z,3488.00
2019-03-19T07:27:57.487Z,3476.00
2019-03-19T07:28:57.399Z,3268.00
2019-03-19T07:29:57.327Z,3208.00
2019-03-19T07:30:57.263Z,3420.00
2019-03-19T07:31:57.230Z,3640.00
2019-03-19T07:32:57.202Z,3736.00
2019-03-19T07:33:57.120Z,3932.00
2019-03-19T07:34:57.067Z,3676.00
2019-03-19T07:35:57.003Z,3612.00
2019-03-19T07:36:56.944Z,3828.00
2019-03-19T07:37:56.910Z,3788.00
2019-03-19T07:38:56.820Z,3748.00
2019-03-19T07:39:56.765Z,3820.00
2019-03-19T07:40:56.716Z,3688.00
2019-03-19T07:41:56.643Z,3648.00
2019-03-19T07:42:56.640Z,3780.00
2019-03-19T07:43:56.538Z,3716.00
2019-03-19T07:44:56.470Z,3584.00
2019-03-19T07:45:56.425Z,3900.00
2019-03-19T07:46:56.359Z,3608.00
2019-03-19T07:47:56.362Z,3640.00
2019-03-19T07:48:56.252Z,3712.00
2019-03-19T07:49:56.188Z,3788.00
2019-03-19T07:50:56.136Z,4012.00
2019-03-19T07:51:56.090Z,3740.00
2019-03-19T07:52:56.046Z,4200.00
2019-03-19T07:53:55.970Z,4672.00
2019-03-19T07:54:55.907Z,5472.00
2019-03-19T07:55:55.853Z,4636.00
2019-03-19T07:56:55.799Z,3972.00
2019-03-19T07:57:55.766Z,3640.00
2019-03-19T07:58:55.682Z,4292.00
2019-03-19T07:59:55.633Z,4600.00
2019-03-19T08:00:55.575Z,4336.00
2019-03-19T08:01:55.533Z,4432.00
2019-03-19T08:02:55.485Z,4636.00
2019-03-19T08:03:55.400Z,4668.00
2019-03-19T08:04:55.409Z,4852.00
2019-03-19T08:05:55.306Z,4660.00
2019-03-19T08:06:55.232Z,4532.00
2019-03-19T08:07:55.197Z,5080.00
2019-03-19T08:08:55.147Z,4704.00
2019-03-19T08:09:55.065Z,4944.00
2019-03-19T08:10:55.008Z,4816.00
2019-03-19T08:11:54.961Z,4872.00
2019-03-19T08:12:54.942Z,4824.00
2019-03-19T08:13:54.844Z,4960.00
2019-03-19T08:14:54.786Z,4928.00
2019-03-19T08:15:54.778Z,4344.00
2019-03-19T08:16:54.702Z,3828.00
2019-03-19T08:17:54.675Z,3664.00
2019-03-19T08:18:54.563Z,3552.00
2019-03-19T08:19:54.523Z,3224.00
2019-03-19T08:20:54.472Z,3804.00
2019-03-19T08:21:54.393Z,3528.00
2019-03-19T08:22:54.359Z,3928.00
2019-03-19T08:23:54.273Z,4528.00
2019-03-19T08:24:54.376Z,4960.00
2019-03-19T08:25:54.165Z,5380.00
2019-03-19T08:26:54.105Z,5108.00
2019-03-19T08:27:54.078Z,6152.00
2019-03-19T08:28:55.482Z,4612.00
2019-03-19T08:29:53.938Z,4512.00
2019-03-19T08:30:53.877Z,4324.00
2019-03-19T08:31:53.854Z,4736.00
2019-03-19T08:32:53.814Z,4268.00
2019-03-19T08:33:53.714Z,3576.00
2019-03-19T08:34:53.650Z,3604.00
2019-03-19T08:35:53.593Z,4300.00
2019-03-19T08:36:53.537Z,5276.00
2019-03-19T08:37:53.508Z,4956.00
2019-03-19T08:38:53.445Z,5324.00
2019-03-19T08:39:53.367Z,5576.00
2019-03-19T08:40:53.328Z,4868.00
2019-03-19T08:41:53.266Z,4892.00
2019-03-19T08:42:53.227Z,4504.00
2019-03-19T08:43:53.204Z,4868.00
2019-03-19T08:44:53.104Z,4092.00
2019-03-19T08:45:53.031Z,4460.00
2019-03-19T08:46:53.006Z,6176.00
2019-03-19T08:47:53.080Z,5656.00
2019-03-19T08:48:52.864Z,4384.00
2019-03-19T08:49:52.845Z,6664.00
2019-03-19T08:50:52.768Z,4776.00
2019-03-19T08:51:52.698Z,7828.00
2019-03-19T08:52:54.994Z,6388.00
2019-03-19T08:53:52.584Z,6556.00
2019-03-19T08:54:52.527Z,6472.00
2019-03-19T08:55:52.478Z,9252.00
2019-03-19T08:56:52.419Z,6192.00
2019-03-19T08:57:52.397Z,4904.00
2019-03-19T08:58:52.311Z,7244.00
2019-03-19T08:59:52.263Z,6548.00
2019-03-19T09:00:52.210Z,6776.00
2019-03-19T09:01:52.154Z,8356.00
2019-03-19T09:02:52.153Z,6000.00
2019-03-19T09:03:52.029Z,4216.00
2019-03-19T09:04:51.985Z,4444.00
2019-03-19T09:05:51.910Z,7196.00
2019-03-19T09:06:51.877Z,4808.00
2019-03-19T09:07:51.805Z,4952.00
2019-03-19T09:08:51.777Z,7948.00
2019-03-19T09:09:51.703Z,8568.00
2019-03-19T09:10:51.639Z,9156.00
2019-03-19T09:11:51.588Z,6968.00
2019-03-19T09:12:51.526Z,5492.00
2019-03-19T09:13:51.540Z,6944.00
2019-03-19T09:14:51.419Z,6804.00
2019-03-19T09:15:51.391Z,5080.00
2019-03-19T09:16:51.321Z,5468.00
2019-03-19T09:17:51.258Z,3808.00
2019-03-19T09:18:51.225Z,4032.00
2019-03-19T09:19:59.015Z,5932.00
2019-03-19T09:20:51.084Z,4704.00
2019-03-19T09:21:51.028Z,4664.00
2019-03-19T09:22:50.985Z,8496.00
2019-03-19T09:23:50.945Z,8904.00
2019-03-19T09:24:50.866Z,10816.00
2019-03-19T09:25:50.811Z,6912.00
2019-03-19T09:26:50.755Z,5852.00
2019-03-19T09:27:50.701Z,5016.00
2019-03-19T09:28:50.668Z,3476.00
2019-03-19T09:29:50.589Z,2372.00
2019-03-19T09:30:50.542Z,2624.00
2019-03-19T09:31:50.478Z,3668.00
2019-03-19T09:32:50.426Z,3596.00
2019-03-19T09:33:50.391Z,5236.00
2019-03-19T09:34:50.320Z,7828.00
2019-03-19T09:35:50.260Z,5584.00
2019-03-19T09:36:57.193Z,5192.00
2019-03-19T09:37:58.404Z,6028.00
2019-03-19T09:38:50.118Z,7732.00
2019-03-19T09:39:50.039Z,6972.00
2019-03-19T09:40:49.985Z,5504.00
2019-03-19T09:41:49.928Z,4868.00
2019-03-19T09:42:49.885Z,4704.00
2019-03-19T09:43:49.845Z,4732.00
2019-03-19T09:44:58.150Z,4628.00
2019-03-19T09:45:49.719Z,4168.00
2019-03-19T09:46:49.656Z,4616.00
2019-03-19T09:47:49.599Z,3320.00
2019-03-19T09:48:49.570Z,3376.00
2019-03-19T09:49:49.489Z,4556.00
2019-03-19T09:50:49.435Z,7168.00
2019-03-19T09:51:49.383Z,8740.00
2019-03-19T09:52:49.329Z,8216.00
2019-03-19T09:53:49.296Z,8228.00
2019-03-19T09:54:49.217Z,6552.00
2019-03-19T09:55:49.160Z,3724.00
2019-03-19T09:56:49.105Z,3032.00
2019-03-19T09:57:49.050Z,3424.00
2019-03-19T09:58:49.018Z,3412.00
2019-03-19T09:59:48.938Z,3284.00
2019-03-19T10:00:48.891Z,4416.00
2019-03-19T10:01:48.837Z,6752.00
2019-03-19T10:02:48.782Z,7384.00
2019-03-19T10:03:48.750Z,5328.00
2019-03-19T10:04:48.670Z,4256.00
2019-03-19T10:05:48.616Z,3988.00
2019-03-19T10:06:48.569Z,4176.00
2019-03-19T10:07:48.504Z,5184.00
2019-03-19T10:08:48.478Z,6896.00
2019-03-19T10:09:48.397Z,6652.00
2019-03-19T10:10:48.349Z,8360.00
2019-03-19T10:11:48.297Z,8416.00
2019-03-19T10:12:48.241Z,6496.00
2019-03-19T10:13:48.208Z,4272.00
2019-03-19T10:14:48.132Z,3412.00
2019-03-19T10:15:48.073Z,3228.00
2019-03-19T10:16:48.018Z,3020.00
2019-03-19T10:17:48.020Z,3784.00
2019-03-19T10:18:47.933Z,2952.00
2019-03-19T10:19:47.862Z,3940.00
2019-03-19T10:20:47.804Z,4480.00
2019-03-19T10:21:47.752Z,5756.00
2019-03-19T10:22:47.698Z,7216.00
2019-03-19T10:23:47.665Z,7976.00
2019-03-19T10:24:47.587Z,8432.00
2019-03-19T10:25:47.536Z,7972.00
2019-03-19T10:26:47.480Z,6644.00
2019-03-19T10:27:47.427Z,5028.00
2019-03-19T10:28:47.398Z,7684.00
2019-03-19T10:29:47.324Z,8872.00
2019-03-19T10:30:47.266Z,7532.00
2019-03-19T10:31:47.213Z,6044.00
2019-03-19T10:32:47.154Z,4324.00
2019-03-19T10:33:47.123Z,2968.00
2019-03-19T10:34:47.048Z,4180.00
2019-03-19T10:35:46.995Z,4096.00
2019-03-19T10:36:46.942Z,3416.00
2019-03-19T10:37:46.897Z,3600.00
2019-03-19T10:38:46.861Z,4016.00
2019-03-19T10:39:46.784Z,3168.00
2019-03-19T10:40:46.728Z,3024.00
2019-03-19T10:41:46.672Z,4232.00
2019-03-19T10:42:46.625Z,4556.00
2019-03-19T10:43:46.593Z,3784.00
2019-03-19T10:44:46.521Z,4036.00
2019-03-19T10:45:46.463Z,3340.00
2019-03-19T10:46:46.403Z,3712.00
2019-03-19T10:47:46.356Z,3832.00
2019-03-19T10:48:46.333Z,4440.00
2019-03-19T10:49:46.245Z,5056.00
2019-03-19T10:50:46.197Z,5492.00
2019-03-19T10:51:46.139Z,5592.00
2019-03-19T10:52:46.096Z,5568.00
2019-03-19T10:53:46.056Z,5460.00
2019-03-19T10:54:45.996Z,5404.00
2019-03-19T10:55:45.925Z,4924.00
2019-03-19T10:56:45.870Z,4292.00
2019-03-19T10:57:45.819Z,4020.00
2019-03-19T10:58:45.767Z,5152.00
2019-03-19T10:59:49.368Z,6096.00
2019-03-19T11:00:45.656Z,6780.00
2019-03-19T11:01:45.596Z,7948.00
2019-03-19T11:02:45.550Z,8540.00
2019-03-19T11:03:45.498Z,9068.00
2019-03-19T11:04:45.467Z,8920.00
2019-03-19T11:05:45.378Z,9000.00
2019-03-19T11:06:45.333Z,8628.00
2019-03-19T11:07:45.289Z,8224.00
2019-03-19T11:08:45.231Z,8016.00
2019-03-19T11:09:45.201Z,8160.00
2019-03-19T11:10:45.124Z,7680.00
2019-03-19T11:11:45.072Z,8596.00
2019-03-19T11:12:45.020Z,9596.00
2019-03-19T11:13:44.964Z,9528.00
2019-03-19T11:14:44.939Z,9444.00
2019-03-19T11:15:44.858Z,9540.00
2019-03-19T11:16:44.805Z,9520.00
2019-03-19T11:17:44.756Z,9132.00
2019-03-19T11:18:44.703Z,9356.00
2019-03-19T11:19:44.672Z,9368.00
2019-03-19T11:20:45.516Z,9392.00
2019-03-19T11:21:44.543Z,9100.00
2019-03-19T11:22:44.488Z,8784.00
2019-03-19T11:23:44.438Z,8528.00
2019-03-19T11:24:44.410Z,8684.00
2019-03-19T11:25:54.193Z,8420.00
2019-03-19T11:26:44.280Z,7840.00
2019-03-19T11:27:44.229Z,7364.00
2019-03-19T11:28:44.173Z,5904.00
2019-03-19T11:29:44.145Z,5836.00
2019-03-19T11:30:44.066Z,6184.00
2019-03-19T11:31:44.019Z,7640.00
2019-03-19T11:32:43.963Z,9080.00
2019-03-19T11:33:43.911Z,9672.00
2019-03-19T11:34:43.885Z,9984.00
2019-03-19T11:35:45.610Z,9480.00
2019-03-19T11:36:43.756Z,8980.00
2019-03-19T11:37:43.706Z,8780.00
2019-03-19T11:38:43.656Z,8940.00
2019-03-19T11:39:43.623Z,8956.00
2019-03-19T11:40:43.596Z,8568.00
2019-03-19T11:41:43.493Z,7940.00
2019-03-19T11:42:43.437Z,7352.00
2019-03-19T11:43:43.390Z,7588.00
2019-03-19T11:44:43.365Z,8760.00
2019-03-19T11:45:43.289Z,9988.00
2019-03-19T11:46:43.240Z,9868.00
2019-03-19T11:47:43.184Z,8732.00
2019-03-19T11:48:43.129Z,8124.00
2019-03-19T11:49:43.097Z,8076.00
2019-03-19T11:50:43.027Z,7968.00
2019-03-19T11:51:42.975Z,7800.00
2019-03-19T11:52:42.924Z,7852.00
2019-03-19T11:53:42.867Z,7844.00
2019-03-19T11:54:42.840Z,7724.00
2019-03-19T11:55:42.769Z,7948.00
2019-03-19T11:56:42.713Z,8052.00
2019-03-19T11:57:42.666Z,7940.00
2019-03-19T11:58:42.610Z,7644.00
2019-03-19T11:59:42.585Z,7144.00
2019-03-19T12:00:42.504Z,6720.00
2019-03-19T12:01:42.454Z,7000.00
2019-03-19T12:02:42.400Z,7448.00
2019-03-19T12:03:42.349Z,7900.00
2019-03-19T12:04:42.322Z,7800.00
2019-03-19T12:05:42.251Z,7612.00
2019-03-19T12:06:42.201Z,6988.00
2019-03-19T12:07:42.140Z,5896.00
2019-03-19T12:08:42.090Z,4992.00
2019-03-19T12:09:42.059Z,4520.00
2019-03-19T12:10:41.986Z,4632.00
2019-03-19T12:11:41.926Z,4856.00
2019-03-19T12:12:41.875Z,4696.00
2019-03-19T12:13:41.821Z,4324.00
2019-03-19T12:14:41.796Z,4340.00
2019-03-19T12:15:41.721Z,4596.00
2019-03-19T12:16:41.670Z,4848.00
2019-03-19T12:17:41.618Z,5124.00
2019-03-19T12:18:41.563Z,4812.00
2019-03-19T12:19:41.536Z,4448.00
2019-03-19T12:20:41.461Z,4348.00
2019-03-19T12:21:41.402Z,4156.00
2019-03-19T12:22:41.345Z,3952.00
2019-03-19T12:23:41.299Z,4164.00
2019-03-19T12:24:41.283Z,4608.00
2019-03-19T12:25:41.200Z,5292.00
2019-03-19T12:26:41.131Z,6016.00
2019-03-19T12:27:41.086Z,6624.00
2019-03-19T12:28:41.032Z,7004.00
2019-03-19T12:29:40.981Z,7044.00
2019-03-19T12:30:40.951Z,7304.00
2019-03-19T12:31:40.867Z,7644.00
2019-03-19T12:32:40.815Z,7652.00
2019-03-19T12:33:41.481Z,6856.00
2019-03-19T12:34:40.719Z,6548.00
2019-03-19T12:35:40.698Z,6684.00
2019-03-19T12:36:40.606Z,7256.00
2019-03-19T12:37:40.559Z,7872.00